sensor_id;sensor_type;location;lat;lon;timestamp;P1;durP1;ratioP1;P2;durP2;ratioP2
21634;SDS011;10979;48.306;9.830;2022-10-28T00:02:17;0.20;;;0.20;;
21634;SDS011;10979;48.306;9.830;2022-10-28T00:04:42;0.20;;;0.20;;
21634;SDS011;10979;48.306;9.830;2022-10-28T00:07:08;0.20;;;0.20;;
21634;SDS011;10979;48.306;9.830;2022-10-28T00:09:34;0.20;;;0.20;;
21634;SDS011;10979;48.306;9.830;2022-10-28T00:11:59;0.20;;;0.20;;
21634;SDS011;10979;48.306;9.830;2022-10-28T00:14:25;0.20;;;0.20;;
21634;SDS011;10979;48.306;9.830;2022-10-28T00:16:50;0.20;;;0.20;;
21634;SDS011;10979;48.306;9.830;2022-10-28T00:19:16;0.20;;;0.20;;
21634;SDS011;10979;48.306;9.830;2022-10-28T00:21:42;0.20;;;0.20;;
21634;SDS011;10979;48.306;9.830;2022-10-28T00:24:08;0.20;;;0.20;;
21634;SDS011;10979;48.306;9.830;2022-10-28T00:26:36;0.20;;;0.20;;
21634;SDS011;10979;48.306;9.830;2022-10-28T00:29:07;0.20;;;0.20;;
21634;SDS011;10979;48.306;9.830;2022-10-28T00:31:34;0.20;;;0.20;;
21634;SDS011;10979;48.306;9.830;2022-10-28T00:34:01;0.20;;;0.20;;
21634;SDS011;10979;48.306;9.830;2022-10-28T00:36:31;0.20;;;0.20;;
21634;SDS011;10979;48.306;9.830;2022-10-28T00:38:59;0.20;;;0.20;;
21634;SDS011;10979;48.306;9.830;2022-10-28T00:41:26;0.20;;;0.20;;
21634;SDS011;10979;48.306;9.830;2022-10-28T00:43:57;0.20;;;0.20;;
21634;SDS011;10979;48.306;9.830;2022-10-28T00:46:43;0.20;;;0.20;;
21634;SDS011;10979;48.306;9.830;2022-10-28T00:51:48;0.30;;;0.30;;
21634;SDS011;10979;48.306;9.830;2022-10-28T00:54:20;0.20;;;0.20;;
21634;SDS011;10979;48.306;9.830;2022-10-28T00:56:48;0.20;;;0.20;;
21634;SDS011;10979;48.306;9.830;2022-10-28T00:59:23;0.20;;;0.20;;
21634;SDS011;10979;48.306;9.830;2022-10-28T01:01:50;0.20;;;0.20;;
21634;SDS011;10979;48.306;9.830;2022-10-28T01:04:16;0.20;;;0.20;;
21634;SDS011;10979;48.306;9.830;2022-10-28T01:06:43;0.20;;;0.20;;
21634;SDS011;10979;48.306;9.830;2022-10-28T01:09:10;0.20;;;0.20;;
21634;SDS011;10979;48.306;9.830;2022-10-28T01:11:52;0.20;;;0.20;;
21634;SDS011;10979;48.306;9.830;2022-10-28T01:14:36;0.20;;;0.20;;
21634;SDS011;10979;48.306;9.830;2022-10-28T01:23:17;0.20;;;0.20;;
21634;SDS011;10979;48.306;9.830;2022-10-28T01:28:58;0.20;;;0.20;;
21634;SDS011;10979;48.306;9.830;2022-10-28T01:31:52;0.20;;;0.20;;
21634;SDS011;10979;48.306;9.830;2022-10-28T01:34:30;0.10;;;0.10;;
21634;SDS011;10979;48.306;9.830;2022-10-28T01:39:49;0.20;;;0.20;;
21634;SDS011;10979;48.306;9.830;2022-10-28T01:48:15;0.20;;;0.20;;
21634;SDS011;10979;48.306;9.830;2022-10-28T01:50:58;0.20;;;0.20;;
21634;SDS011;10979;48.306;9.830;2022-10-28T01:53:32;0.20;;;0.20;;
21634;SDS011;10979;48.306;9.830;2022-10-28T01:56:02;0.20;;;0.20;;
21634;SDS011;10979;48.306;9.830;2022-10-28T01:58:32;0.20;;;0.20;;
21634;SDS011;10979;48.306;9.830;2022-10-28T02:00:59;0.20;;;0.20;;
21634;SDS011;10979;48.306;9.830;2022-10-28T02:03:28;0.30;;;0.30;;
21634;SDS011;10979;48.306;9.830;2022-10-28T02:05:54;0.20;;;0.20;;
21634;SDS011;10979;48.306;9.830;2022-10-28T02:12:14;0.20;;;0.20;;
21634;SDS011;10979;48.306;9.830;2022-10-28T02:20:09;0.20;;;0.20;;
21634;SDS011;10979;48.306;9.830;2022-10-28T02:23:07;0.20;;;0.20;;
21634;SDS011;10979;48.306;9.830;2022-10-28T02:26:13;0.20;;;0.20;;
21634;SDS011;10979;48.306;9.830;2022-10-28T02:29:00;0.20;;;0.20;;
21634;SDS011;10979;48.306;9.830;2022-10-28T02:34:02;0.20;;;0.20;;
21634;SDS011;10979;48.306;9.830;2022-10-28T02:36:33;0.20;;;0.20;;
21634;SDS011;10979;48.306;9.830;2022-10-28T02:39:03;0.20;;;0.20;;
21634;SDS011;10979;48.306;9.830;2022-10-28T02:44:37;0.20;;;0.20;;
21634;SDS011;10979;48.306;9.830;2022-10-28T02:47:07;0.20;;;0.20;;
21634;SDS011;10979;48.306;9.830;2022-10-28T02:49:37;0.20;;;0.20;;
21634;SDS011;10979;48.306;9.830;2022-10-28T02:52:07;0.20;;;0.20;;
21634;SDS011;10979;48.306;9.830;2022-10-28T02:54:38;0.20;;;0.20;;
21634;SDS011;10979;48.306;9.830;2022-10-28T02:57:08;0.20;;;0.20;;
21634;SDS011;10979;48.306;9.830;2022-10-28T02:59:41;0.20;;;0.20;;
21634;SDS011;10979;48.306;9.830;2022-10-28T03:02:07;0.20;;;0.20;;
21634;SDS011;10979;48.306;9.830;2022-10-28T03:04:33;0.22;;;0.22;;
21634;SDS011;10979;48.306;9.830;2022-10-28T03:06:58;0.20;;;0.20;;
21634;SDS011;10979;48.306;9.830;2022-10-28T03:09:24;0.20;;;0.20;;
21634;SDS011;10979;48.306;9.830;2022-10-28T03:11:49;0.20;;;0.20;;
21634;SDS011;10979;48.306;9.830;2022-10-28T03:14:15;0.20;;;0.20;;
21634;SDS011;10979;48.306;9.830;2022-10-28T03:16:40;0.20;;;0.20;;
21634;SDS011;10979;48.306;9.830;2022-10-28T03:19:06;0.20;;;0.20;;
21634;SDS011;10979;48.306;9.830;2022-10-28T03:21:31;0.20;;;0.20;;
21634;SDS011;10979;48.306;9.830;2022-10-28T03:23:57;0.20;;;0.20;;
21634;SDS011;10979;48.306;9.830;2022-10-28T03:26:23;0.20;;;0.20;;
21634;SDS011;10979;48.306;9.830;2022-10-28T03:28:48;0.20;;;0.20;;
21634;SDS011;10979;48.306;9.830;2022-10-28T03:31:14;0.20;;;0.20;;
21634;SDS011;10979;48.306;9.830;2022-10-28T03:33:40;0.20;;;0.20;;
21634;SDS011;10979;48.306;9.830;2022-10-28T03:36:06;0.20;;;0.20;;
21634;SDS011;10979;48.306;9.830;2022-10-28T03:38:32;0.20;;;0.20;;
21634;SDS011;10979;48.306;9.830;2022-10-28T03:40:58;0.30;;;0.30;;
21634;SDS011;10979;48.306;9.830;2022-10-28T03:43:23;0.20;;;0.20;;
21634;SDS011;10979;48.306;9.830;2022-10-28T03:45:49;0.20;;;0.20;;
21634;SDS011;10979;48.306;9.830;2022-10-28T03:48:14;0.20;;;0.20;;
21634;SDS011;10979;48.306;9.830;2022-10-28T03:50:40;0.30;;;0.30;;
21634;SDS011;10979;48.306;9.830;2022-10-28T03:53:05;0.28;;;0.28;;
21634;SDS011;10979;48.306;9.830;2022-10-28T03:55:31;0.20;;;0.20;;
21634;SDS011;10979;48.306;9.830;2022-10-28T03:57:59;0.20;;;0.20;;
21634;SDS011;10979;48.306;9.830;2022-10-28T04:00:25;0.20;;;0.20;;
21634;SDS011;10979;48.306;9.830;2022-10-28T04:02:51;0.20;;;0.20;;
21634;SDS011;10979;48.306;9.830;2022-10-28T04:05:17;0.20;;;0.20;;
21634;SDS011;10979;48.306;9.830;2022-10-28T04:07:44;0.20;;;0.20;;
21634;SDS011;10979;48.306;9.830;2022-10-28T04:10:09;0.20;;;0.20;;
21634;SDS011;10979;48.306;9.830;2022-10-28T04:12:35;0.20;;;0.20;;
21634;SDS011;10979;48.306;9.830;2022-10-28T04:15:01;0.20;;;0.20;;
21634;SDS011;10979;48.306;9.830;2022-10-28T04:17:27;0.22;;;0.22;;
21634;SDS011;10979;48.306;9.830;2022-10-28T04:19:52;0.20;;;0.20;;
21634;SDS011;10979;48.306;9.830;2022-10-28T04:22:18;0.20;;;0.20;;
21634;SDS011;10979;48.306;9.830;2022-10-28T04:24:44;0.20;;;0.20;;
21634;SDS011;10979;48.306;9.830;2022-10-28T04:27:09;0.20;;;0.20;;
21634;SDS011;10979;48.306;9.830;2022-10-28T04:29:35;0.20;;;0.20;;
21634;SDS011;10979;48.306;9.830;2022-10-28T04:32:00;0.20;;;0.20;;
21634;SDS011;10979;48.306;9.830;2022-10-28T04:34:26;0.20;;;0.20;;
21634;SDS011;10979;48.306;9.830;2022-10-28T04:36:52;0.30;;;0.30;;
21634;SDS011;10979;48.306;9.830;2022-10-28T04:39:17;0.20;;;0.20;;
21634;SDS011;10979;48.306;9.830;2022-10-28T04:41:43;0.30;;;0.30;;
21634;SDS011;10979;48.306;9.830;2022-10-28T04:44:08;0.20;;;0.20;;
21634;SDS011;10979;48.306;9.830;2022-10-28T04:46:34;0.20;;;0.20;;
21634;SDS011;10979;48.306;9.830;2022-10-28T04:48:59;0.20;;;0.20;;
21634;SDS011;10979;48.306;9.830;2022-10-28T04:51:25;0.20;;;0.20;;
21634;SDS011;10979;48.306;9.830;2022-10-28T04:53:50;0.20;;;0.20;;
21634;SDS011;10979;48.306;9.830;2022-10-28T04:56:16;0.20;;;0.20;;
21634;SDS011;10979;48.306;9.830;2022-10-28T04:58:42;0.20;;;0.20;;
21634;SDS011;10979;48.306;9.830;2022-10-28T05:01:08;0.20;;;0.20;;
21634;SDS011;10979;48.306;9.830;2022-10-28T05:03:34;0.28;;;0.28;;
21634;SDS011;10979;48.306;9.830;2022-10-28T05:06:00;0.20;;;0.20;;
21634;SDS011;10979;48.306;9.830;2022-10-28T05:08:26;0.30;;;0.30;;
21634;SDS011;10979;48.306;9.830;2022-10-28T05:10:52;0.20;;;0.20;;
21634;SDS011;10979;48.306;9.830;2022-10-28T05:13:18;0.20;;;0.20;;
21634;SDS011;10979;48.306;9.830;2022-10-28T05:15:46;0.30;;;0.30;;
21634;SDS011;10979;48.306;9.830;2022-10-28T05:18:12;0.22;;;0.22;;
21634;SDS011;10979;48.306;9.830;2022-10-28T05:20:38;0.20;;;0.20;;
21634;SDS011;10979;48.306;9.830;2022-10-28T05:23:04;0.20;;;0.20;;
21634;SDS011;10979;48.306;9.830;2022-10-28T05:25:29;0.30;;;0.30;;
21634;SDS011;10979;48.306;9.830;2022-10-28T05:27:58;0.20;;;0.20;;
21634;SDS011;10979;48.306;9.830;2022-10-28T05:30:24;0.20;;;0.20;;
21634;SDS011;10979;48.306;9.830;2022-10-28T05:32:50;0.20;;;0.20;;
21634;SDS011;10979;48.306;9.830;2022-10-28T05:35:16;0.20;;;0.20;;
21634;SDS011;10979;48.306;9.830;2022-10-28T05:37:41;0.30;;;0.30;;
21634;SDS011;10979;48.306;9.830;2022-10-28T05:40:07;0.20;;;0.20;;
21634;SDS011;10979;48.306;9.830;2022-10-28T05:42:38;0.20;;;0.20;;
21634;SDS011;10979;48.306;9.830;2022-10-28T05:45:08;0.20;;;0.20;;
21634;SDS011;10979;48.306;9.830;2022-10-28T05:47:34;0.20;;;0.20;;
21634;SDS011;10979;48.306;9.830;2022-10-28T05:50:00;0.20;;;0.20;;
21634;SDS011;10979;48.306;9.830;2022-10-28T05:52:26;0.20;;;0.20;;
21634;SDS011;10979;48.306;9.830;2022-10-28T05:54:51;0.20;;;0.20;;
21634;SDS011;10979;48.306;9.830;2022-10-28T05:57:17;0.20;;;0.20;;
21634;SDS011;10979;48.306;9.830;2022-10-28T05:59:42;0.20;;;0.20;;
21634;SDS011;10979;48.306;9.830;2022-10-28T06:02:12;0.20;;;0.20;;
21634;SDS011;10979;48.306;9.830;2022-10-28T06:04:38;0.30;;;0.30;;
21634;SDS011;10979;48.306;9.830;2022-10-28T06:07:05;0.20;;;0.20;;
21634;SDS011;10979;48.306;9.830;2022-10-28T06:09:30;0.20;;;0.20;;
21634;SDS011;10979;48.306;9.830;2022-10-28T06:11:56;0.20;;;0.20;;
21634;SDS011;10979;48.306;9.830;2022-10-28T06:14:21;0.10;;;0.10;;
21634;SDS011;10979;48.306;9.830;2022-10-28T06:16:47;0.20;;;0.20;;
21634;SDS011;10979;48.306;9.830;2022-10-28T06:19:12;0.20;;;0.20;;
21634;SDS011;10979;48.306;9.830;2022-10-28T06:21:38;0.20;;;0.20;;
21634;SDS011;10979;48.306;9.830;2022-10-28T06:24:04;0.20;;;0.20;;
21634;SDS011;10979;48.306;9.830;2022-10-28T06:26:29;0.20;;;0.20;;
21634;SDS011;10979;48.306;9.830;2022-10-28T06:28:55;0.20;;;0.20;;
21634;SDS011;10979;48.306;9.830;2022-10-28T06:31:21;0.20;;;0.20;;
21634;SDS011;10979;48.306;9.830;2022-10-28T06:33:49;0.20;;;0.20;;
21634;SDS011;10979;48.306;9.830;2022-10-28T06:36:14;0.20;;;0.20;;
21634;SDS011;10979;48.306;9.830;2022-10-28T06:38:40;0.20;;;0.20;;
21634;SDS011;10979;48.306;9.830;2022-10-28T06:41:05;0.20;;;0.20;;
21634;SDS011;10979;48.306;9.830;2022-10-28T06:43:31;0.20;;;0.20;;
21634;SDS011;10979;48.306;9.830;2022-10-28T06:45:59;0.20;;;0.20;;
21634;SDS011;10979;48.306;9.830;2022-10-28T06:48:26;0.20;;;0.20;;
21634;SDS011;10979;48.306;9.830;2022-10-28T06:50:54;0.20;;;0.20;;
21634;SDS011;10979;48.306;9.830;2022-10-28T06:53:21;0.10;;;0.10;;
21634;SDS011;10979;48.306;9.830;2022-10-28T06:55:51;0.20;;;0.20;;
21634;SDS011;10979;48.306;9.830;2022-10-28T06:58:17;0.20;;;0.20;;
21634;SDS011;10979;48.306;9.830;2022-10-28T07:00:43;0.10;;;0.10;;
21634;SDS011;10979;48.306;9.830;2022-10-28T07:03:09;0.15;;;0.15;;
21634;SDS011;10979;48.306;9.830;2022-10-28T07:05:35;0.10;;;0.10;;
21634;SDS011;10979;48.306;9.830;2022-10-28T07:08:00;0.20;;;0.20;;
21634;SDS011;10979;48.306;9.830;2022-10-28T07:10:26;0.10;;;0.10;;
21634;SDS011;10979;48.306;9.830;2022-10-28T07:12:52;0.10;;;0.10;;
21634;SDS011;10979;48.306;9.830;2022-10-28T07:15:17;0.10;;;0.10;;
21634;SDS011;10979;48.306;9.830;2022-10-28T07:17:43;0.10;;;0.10;;
21634;SDS011;10979;48.306;9.830;2022-10-28T07:20:08;0.20;;;0.20;;
21634;SDS011;10979;48.306;9.830;2022-10-28T07:22:34;0.10;;;0.10;;
21634;SDS011;10979;48.306;9.830;2022-10-28T07:25:00;0.13;;;0.13;;
21634;SDS011;10979;48.306;9.830;2022-10-28T07:27:26;0.20;;;0.20;;
21634;SDS011;10979;48.306;9.830;2022-10-28T07:29:51;0.10;;;0.10;;
21634;SDS011;10979;48.306;9.830;2022-10-28T07:32:17;0.20;;;0.20;;
21634;SDS011;10979;48.306;9.830;2022-10-28T07:34:42;0.17;;;0.17;;
21634;SDS011;10979;48.306;9.830;2022-10-28T07:37:08;0.20;;;0.20;;
21634;SDS011;10979;48.306;9.830;2022-10-28T07:39:35;0.10;;;0.10;;
21634;SDS011;10979;48.306;9.830;2022-10-28T07:42:00;0.10;;;0.10;;
21634;SDS011;10979;48.306;9.830;2022-10-28T07:44:26;0.10;;;0.10;;
21634;SDS011;10979;48.306;9.830;2022-10-28T07:46:52;0.10;;;0.10;;
21634;SDS011;10979;48.306;9.830;2022-10-28T07:49:18;0.10;;;0.10;;
21634;SDS011;10979;48.306;9.830;2022-10-28T07:51:43;0.20;;;0.20;;
21634;SDS011;10979;48.306;9.830;2022-10-28T07:54:09;0.10;;;0.10;;
21634;SDS011;10979;48.306;9.830;2022-10-28T07:56:37;0.10;;;0.10;;
21634;SDS011;10979;48.306;9.830;2022-10-28T07:59:04;0.10;;;0.10;;
21634;SDS011;10979;48.306;9.830;2022-10-28T08:01:30;0.10;;;0.10;;
21634;SDS011;10979;48.306;9.830;2022-10-28T08:03:56;0.10;;;0.10;;
21634;SDS011;10979;48.306;9.830;2022-10-28T08:06:21;0.10;;;0.10;;
21634;SDS011;10979;48.306;9.830;2022-10-28T08:08:47;0.10;;;0.10;;
21634;SDS011;10979;48.306;9.830;2022-10-28T08:11:17;0.10;;;0.10;;
21634;SDS011;10979;48.306;9.830;2022-10-28T08:13:44;0.10;;;0.10;;
21634;SDS011;10979;48.306;9.830;2022-10-28T08:16:10;0.10;;;0.10;;
21634;SDS011;10979;48.306;9.830;2022-10-28T08:18:36;0.10;;;0.10;;
21634;SDS011;10979;48.306;9.830;2022-10-28T08:21:03;0.10;;;0.10;;
21634;SDS011;10979;48.306;9.830;2022-10-28T08:23:30;0.10;;;0.10;;
21634;SDS011;10979;48.306;9.830;2022-10-28T08:25:56;0.10;;;0.10;;
21634;SDS011;10979;48.306;9.830;2022-10-28T08:28:22;0.10;;;0.10;;
21634;SDS011;10979;48.306;9.830;2022-10-28T08:30:48;0.10;;;0.10;;
21634;SDS011;10979;48.306;9.830;2022-10-28T08:33:14;0.10;;;0.10;;
21634;SDS011;10979;48.306;9.830;2022-10-28T08:35:40;0.10;;;0.10;;
21634;SDS011;10979;48.306;9.830;2022-10-28T08:38:06;0.10;;;0.10;;
21634;SDS011;10979;48.306;9.830;2022-10-28T08:40:50;0.10;;;0.10;;
21634;SDS011;10979;48.306;9.830;2022-10-28T08:49:01;0.00;;;0.00;;
21634;SDS011;10979;48.306;9.830;2022-10-28T08:54:10;0.00;;;0.00;;
21634;SDS011;10979;48.306;9.830;2022-10-28T08:56:41;0.00;;;0.00;;
21634;SDS011;10979;48.306;9.830;2022-10-28T08:59:11;0.00;;;0.00;;
21634;SDS011;10979;48.306;9.830;2022-10-28T09:01:58;0.00;;;0.00;;
21634;SDS011;10979;48.306;9.830;2022-10-28T09:04:34;0.10;;;0.10;;
21634;SDS011;10979;48.306;9.830;2022-10-28T09:07:00;0.00;;;0.00;;
21634;SDS011;10979;48.306;9.830;2022-10-28T09:09:26;0.00;;;0.00;;
21634;SDS011;10979;48.306;9.830;2022-10-28T09:20:19;0.00;;;0.00;;
21634;SDS011;10979;48.306;9.830;2022-10-28T09:23:27;0.00;;;0.00;;
21634;SDS011;10979;48.306;9.830;2022-10-28T09:36:53;0.00;;;0.00;;
21634;SDS011;10979;48.306;9.830;2022-10-28T09:39:28;0.00;;;0.00;;
21634;SDS011;10979;48.306;9.830;2022-10-28T09:42:07;0.00;;;0.00;;
21634;SDS011;10979;48.306;9.830;2022-10-28T09:44:39;0.00;;;0.00;;
21634;SDS011;10979;48.306;9.830;2022-10-28T09:47:28;0.00;;;0.00;;
21634;SDS011;10979;48.306;9.830;2022-10-28T09:50:00;0.00;;;0.00;;
21634;SDS011;10979;48.306;9.830;2022-10-28T09:52:29;0.00;;;0.00;;
21634;SDS011;10979;48.306;9.830;2022-10-28T09:55:22;0.00;;;0.00;;
21634;SDS011;10979;48.306;9.830;2022-10-28T09:57:48;0.00;;;0.00;;
21634;SDS011;10979;48.306;9.830;2022-10-28T10:00:14;0.00;;;0.00;;
21634;SDS011;10979;48.306;9.830;2022-10-28T10:02:40;0.00;;;0.00;;
21634;SDS011;10979;48.306;9.830;2022-10-28T10:05:14;0.00;;;0.00;;
21634;SDS011;10979;48.306;9.830;2022-10-28T10:07:51;0.00;;;0.00;;
21634;SDS011;10979;48.306;9.830;2022-10-28T10:10:22;0.00;;;0.00;;
21634;SDS011;10979;48.306;9.830;2022-10-28T10:12:54;0.00;;;0.00;;
21634;SDS011;10979;48.306;9.830;2022-10-28T10:18:01;0.00;;;0.00;;
21634;SDS011;10979;48.306;9.830;2022-10-28T10:20:49;0.00;;;0.00;;
21634;SDS011;10979;48.306;9.830;2022-10-28T10:23:23;0.00;;;0.00;;
21634;SDS011;10979;48.306;9.830;2022-10-28T10:25:53;0.00;;;0.00;;
21634;SDS011;10979;48.306;9.830;2022-10-28T10:28:21;0.00;;;0.00;;
21634;SDS011;10979;48.306;9.830;2022-10-28T10:30:50;0.00;;;0.00;;
21634;SDS011;10979;48.306;9.830;2022-10-28T10:33:18;0.00;;;0.00;;
21634;SDS011;10979;48.306;9.830;2022-10-28T10:36:00;0.00;;;0.00;;
21634;SDS011;10979;48.306;9.830;2022-10-28T10:38:27;0.10;;;0.00;;
21634;SDS011;10979;48.306;9.830;2022-10-28T10:40:53;0.00;;;0.00;;
21634;SDS011;10979;48.306;9.830;2022-10-28T10:46:03;0.00;;;0.00;;
21634;SDS011;10979;48.306;9.830;2022-10-28T10:48:36;0.00;;;0.00;;
21634;SDS011;10979;48.306;9.830;2022-10-28T10:51:06;0.00;;;0.00;;
21634;SDS011;10979;48.306;9.830;2022-10-28T10:53:36;0.00;;;0.00;;
21634;SDS011;10979;48.306;9.830;2022-10-28T10:56:04;0.00;;;0.00;;
21634;SDS011;10979;48.306;9.830;2022-10-28T10:58:36;0.00;;;0.00;;
21634;SDS011;10979;48.306;9.830;2022-10-28T11:01:04;0.00;;;0.00;;
21634;SDS011;10979;48.306;9.830;2022-10-28T11:03:46;0.00;;;0.00;;
21634;SDS011;10979;48.306;9.830;2022-10-28T11:06:19;0.00;;;0.00;;
21634;SDS011;10979;48.306;9.830;2022-10-28T11:08:47;0.00;;;0.00;;
21634;SDS011;10979;48.306;9.830;2022-10-28T11:11:19;0.00;;;0.00;;
21634;SDS011;10979;48.306;9.830;2022-10-28T11:13:46;0.00;;;0.00;;
21634;SDS011;10979;48.306;9.830;2022-10-28T11:16:17;0.00;;;0.00;;
21634;SDS011;10979;48.306;9.830;2022-10-28T11:18:45;0.00;;;0.00;;
21634;SDS011;10979;48.306;9.830;2022-10-28T11:21:36;0.00;;;0.00;;
21634;SDS011;10979;48.306;9.830;2022-10-28T11:24:16;0.00;;;0.00;;
21634;SDS011;10979;48.306;9.830;2022-10-28T11:26:49;0.00;;;0.00;;
21634;SDS011;10979;48.306;9.830;2022-10-28T11:29:39;0.00;;;0.00;;
21634;SDS011;10979;48.306;9.830;2022-10-28T11:32:11;0.00;;;0.00;;
21634;SDS011;10979;48.306;9.830;2022-10-28T11:34:54;0.00;;;0.00;;
21634;SDS011;10979;48.306;9.830;2022-10-28T11:38:05;0.00;;;0.00;;
21634;SDS011;10979;48.306;9.830;2022-10-28T11:43:26;0.00;;;0.00;;
21634;SDS011;10979;48.306;9.830;2022-10-28T11:57:15;0.00;;;0.00;;
21634;SDS011;10979;48.306;9.830;2022-10-28T12:05:26;0.00;;;0.00;;
21634;SDS011;10979;48.306;9.830;2022-10-28T12:08:16;0.00;;;0.00;;
21634;SDS011;10979;48.306;9.830;2022-10-28T12:11:17;0.00;;;0.00;;
21634;SDS011;10979;48.306;9.830;2022-10-28T12:16:42;0.00;;;0.00;;
21634;SDS011;10979;48.306;9.830;2022-10-28T12:21:54;0.00;;;0.00;;
21634;SDS011;10979;48.306;9.830;2022-10-28T12:24:20;0.00;;;0.00;;
21634;SDS011;10979;48.306;9.830;2022-10-28T12:26:58;0.00;;;0.00;;
21634;SDS011;10979;48.306;9.830;2022-10-28T12:29:27;0.00;;;0.00;;
21634;SDS011;10979;48.306;9.830;2022-10-28T12:34:33;0.00;;;0.00;;
21634;SDS011;10979;48.306;9.830;2022-10-28T12:37:10;0.00;;;0.00;;
21634;SDS011;10979;48.306;9.830;2022-10-28T12:40:34;0.00;;;0.00;;
21634;SDS011;10979;48.306;9.830;2022-10-28T12:43:02;0.00;;;0.00;;
21634;SDS011;10979;48.306;9.830;2022-10-28T12:45:42;0.00;;;0.00;;
21634;SDS011;10979;48.306;9.830;2022-10-28T12:48:17;0.00;;;0.00;;
21634;SDS011;10979;48.306;9.830;2022-10-28T12:53:38;0.00;;;0.00;;
21634;SDS011;10979;48.306;9.830;2022-10-28T12:56:10;0.00;;;0.00;;
21634;SDS011;10979;48.306;9.830;2022-10-28T13:01:31;0.00;;;0.00;;
21634;SDS011;10979;48.306;9.830;2022-10-28T13:03:58;0.00;;;0.00;;
21634;SDS011;10979;48.306;9.830;2022-10-28T13:14:04;0.00;;;0.00;;
21634;SDS011;10979;48.306;9.830;2022-10-28T13:26:55;0.00;;;0.00;;
21634;SDS011;10979;48.306;9.830;2022-10-28T13:31:49;0.00;;;0.00;;
21634;SDS011;10979;48.306;9.830;2022-10-28T13:34:16;0.00;;;0.00;;
21634;SDS011;10979;48.306;9.830;2022-10-28T13:36:46;0.00;;;0.00;;
21634;SDS011;10979;48.306;9.830;2022-10-28T13:39:37;0.00;;;0.00;;
21634;SDS011;10979;48.306;9.830;2022-10-28T13:44:47;0.00;;;0.00;;
21634;SDS011;10979;48.306;9.830;2022-10-28T13:49:43;0.00;;;0.00;;
21634;SDS011;10979;48.306;9.830;2022-10-28T13:58:37;0.00;;;0.00;;
21634;SDS011;10979;48.306;9.830;2022-10-28T14:00:45;0.00;;;0.00;;
21634;SDS011;10979;48.306;9.830;2022-10-28T14:08:25;0.00;;;0.00;;
21634;SDS011;10979;48.306;9.830;2022-10-28T14:13:33;0.00;;;0.00;;
21634;SDS011;10979;48.306;9.830;2022-10-28T14:19:00;0.00;;;0.00;;
21634;SDS011;10979;48.306;9.830;2022-10-28T14:24:36;0.00;;;0.00;;
21634;SDS011;10979;48.306;9.830;2022-10-28T14:37:46;0.10;;;0.10;;
21634;SDS011;10979;48.306;9.830;2022-10-28T14:40:50;0.00;;;0.00;;
21634;SDS011;10979;48.306;9.830;2022-10-28T14:46:22;0.63;;;0.60;;
21634;SDS011;10979;48.306;9.830;2022-10-28T14:48:56;0.00;;;0.00;;
21634;SDS011;10979;48.306;9.830;2022-10-28T14:51:24;0.10;;;0.10;;
21634;SDS011;10979;48.306;9.830;2022-10-28T14:54:06;0.00;;;0.00;;
21634;SDS011;10979;48.306;9.830;2022-10-28T14:56:36;0.00;;;0.00;;
21634;SDS011;10979;48.306;9.830;2022-10-28T14:59:18;0.00;;;0.00;;
21634;SDS011;10979;48.306;9.830;2022-10-28T15:04:14;0.00;;;0.00;;
21634;SDS011;10979;48.306;9.830;2022-10-28T15:06:40;0.00;;;0.00;;
21634;SDS011;10979;48.306;9.830;2022-10-28T15:11:51;0.00;;;0.00;;
21634;SDS011;10979;48.306;9.830;2022-10-28T15:14:31;0.00;;;0.00;;
21634;SDS011;10979;48.306;9.830;2022-10-28T15:17:10;0.00;;;0.00;;
21634;SDS011;10979;48.306;9.830;2022-10-28T15:19:38;0.00;;;0.00;;
21634;SDS011;10979;48.306;9.830;2022-10-28T15:22:14;0.00;;;0.00;;
21634;SDS011;10979;48.306;9.830;2022-10-28T15:24:50;0.00;;;0.00;;
21634;SDS011;10979;48.306;9.830;2022-10-28T15:27:17;0.00;;;0.00;;
21634;SDS011;10979;48.306;9.830;2022-10-28T15:29:43;0.00;;;0.00;;
21634;SDS011;10979;48.306;9.830;2022-10-28T15:32:10;0.00;;;0.00;;
21634;SDS011;10979;48.306;9.830;2022-10-28T15:34:46;0.00;;;0.00;;
21634;SDS011;10979;48.306;9.830;2022-10-28T15:37:25;0.00;;;0.00;;
21634;SDS011;10979;48.306;9.830;2022-10-28T15:40:09;0.00;;;0.00;;
21634;SDS011;10979;48.306;9.830;2022-10-28T15:43:04;0.00;;;0.00;;
21634;SDS011;10979;48.306;9.830;2022-10-28T15:45:33;0.00;;;0.00;;
21634;SDS011;10979;48.306;9.830;2022-10-28T15:48:00;0.00;;;0.00;;
21634;SDS011;10979;48.306;9.830;2022-10-28T15:50:34;0.00;;;0.00;;
21634;SDS011;10979;48.306;9.830;2022-10-28T15:55:35;0.00;;;0.00;;
21634;SDS011;10979;48.306;9.830;2022-10-28T16:00:53;0.00;;;0.00;;
21634;SDS011;10979;48.306;9.830;2022-10-28T16:06:03;0.00;;;0.00;;
21634;SDS011;10979;48.306;9.830;2022-10-28T16:08:29;0.00;;;0.00;;
21634;SDS011;10979;48.306;9.830;2022-10-28T16:11:01;0.00;;;0.00;;
21634;SDS011;10979;48.306;9.830;2022-10-28T16:13:32;0.00;;;0.00;;
21634;SDS011;10979;48.306;9.830;2022-10-28T16:18:30;0.00;;;0.00;;
21634;SDS011;10979;48.306;9.830;2022-10-28T16:20:58;0.00;;;0.00;;
21634;SDS011;10979;48.306;9.830;2022-10-28T16:23:26;0.00;;;0.00;;
21634;SDS011;10979;48.306;9.830;2022-10-28T16:25:58;0.00;;;0.00;;
21634;SDS011;10979;48.306;9.830;2022-10-28T16:28:25;0.00;;;0.00;;
21634;SDS011;10979;48.306;9.830;2022-10-28T16:30:55;0.00;;;0.00;;
21634;SDS011;10979;48.306;9.830;2022-10-28T16:33:27;0.00;;;0.00;;
21634;SDS011;10979;48.306;9.830;2022-10-28T16:35:55;0.00;;;0.00;;
21634;SDS011;10979;48.306;9.830;2022-10-28T16:38:21;0.00;;;0.00;;
21634;SDS011;10979;48.306;9.830;2022-10-28T16:40:46;0.00;;;0.00;;
21634;SDS011;10979;48.306;9.830;2022-10-28T16:43:13;0.00;;;0.00;;
21634;SDS011;10979;48.306;9.830;2022-10-28T16:45:40;0.00;;;0.00;;
21634;SDS011;10979;48.306;9.830;2022-10-28T16:48:12;0.00;;;0.00;;
21634;SDS011;10979;48.306;9.830;2022-10-28T16:50:40;0.00;;;0.00;;
21634;SDS011;10979;48.306;9.830;2022-10-28T16:53:27;0.00;;;0.00;;
21634;SDS011;10979;48.306;9.830;2022-10-28T16:55:53;0.00;;;0.00;;
21634;SDS011;10979;48.306;9.830;2022-10-28T16:58:25;0.00;;;0.00;;
21634;SDS011;10979;48.306;9.830;2022-10-28T17:00:52;0.00;;;0.00;;
21634;SDS011;10979;48.306;9.830;2022-10-28T17:03:18;0.00;;;0.00;;
21634;SDS011;10979;48.306;9.830;2022-10-28T17:05:43;0.00;;;0.00;;
21634;SDS011;10979;48.306;9.830;2022-10-28T17:08:10;0.00;;;0.00;;
21634;SDS011;10979;48.306;9.830;2022-10-28T17:10:36;0.00;;;0.00;;
21634;SDS011;10979;48.306;9.830;2022-10-28T17:13:04;0.00;;;0.00;;
21634;SDS011;10979;48.306;9.830;2022-10-28T17:15:32;0.00;;;0.00;;
21634;SDS011;10979;48.306;9.830;2022-10-28T17:17:59;0.00;;;0.00;;
21634;SDS011;10979;48.306;9.830;2022-10-28T17:20:24;0.00;;;0.00;;
21634;SDS011;10979;48.306;9.830;2022-10-28T17:22:50;0.00;;;0.00;;
21634;SDS011;10979;48.306;9.830;2022-10-28T17:25:17;0.00;;;0.00;;
21634;SDS011;10979;48.306;9.830;2022-10-28T17:27:43;0.00;;;0.00;;
21634;SDS011;10979;48.306;9.830;2022-10-28T17:30:13;0.00;;;0.00;;
21634;SDS011;10979;48.306;9.830;2022-10-28T17:32:42;0.00;;;0.00;;
21634;SDS011;10979;48.306;9.830;2022-10-28T17:35:08;0.00;;;0.00;;
21634;SDS011;10979;48.306;9.830;2022-10-28T17:37:34;0.00;;;0.00;;
21634;SDS011;10979;48.306;9.830;2022-10-28T17:40:00;0.00;;;0.00;;
21634;SDS011;10979;48.306;9.830;2022-10-28T17:42:26;0.00;;;0.00;;
21634;SDS011;10979;48.306;9.830;2022-10-28T17:44:52;0.00;;;0.00;;
21634;SDS011;10979;48.306;9.830;2022-10-28T17:47:17;0.00;;;0.00;;
21634;SDS011;10979;48.306;9.830;2022-10-28T17:49:43;0.00;;;0.00;;
21634;SDS011;10979;48.306;9.830;2022-10-28T17:52:08;0.00;;;0.00;;
21634;SDS011;10979;48.306;9.830;2022-10-28T17:54:34;0.00;;;0.00;;
21634;SDS011;10979;48.306;9.830;2022-10-28T17:57:00;0.00;;;0.00;;
21634;SDS011;10979;48.306;9.830;2022-10-28T17:59:25;0.00;;;0.00;;
21634;SDS011;10979;48.306;9.830;2022-10-28T18:01:51;0.00;;;0.00;;